TimeEAT,TemperatureF,Dew PointF,Humidity,Sea Level PressureIn,VisibilityMPH,Wind Direction,Wind SpeedMPH,Gust SpeedMPH,PrecipitationIn,Events,Conditions,WindDirDegrees,DateUTC
12:00 AM,57.2,57.2,100,30.27,5.6,East,3.5,-,N/A,Fog,Light Fog,90,2013-03-10 21:00:00
1:00 AM,59.0,55.4,88,-9999,6.2,Calm,Calm,-,N/A,,Mostly Cloudy,0,2013-03-10 22:00:00
2:00 AM,57.2,51.8,82,-9999,-9999.0,Calm,Calm,-,N/A,,Clear,0,2013-03-10 23:00:00
4:00 AM,53.6,51.8,94,30.21,-9999.0,East,4.6,-,N/A,,Clear,90,2013-03-11 01:00:00
7:00 AM,51.8,50.0,94,30.21,-9999.0,East,5.8,-,N/A,,Clear,80,2013-03-11 04:00:00
8:00 AM,59.0,53.6,82,30.24,-9999.0,East,6.9,-,N/A,,Clear,100,2013-03-11 05:00:00
9:00 AM,66.2,57.2,73,30.27,-9999.0,East,6.9,-,N/A,,Mostly Cloudy,90,2013-03-11 06:00:00
10:00 AM,71.6,53.6,53,30.27,6.2,NNE,5.8,-,N/A,,Mostly Cloudy,30,2013-03-11 07:00:00
11:00 AM,75.2,55.4,50,30.27,6.2,NE,8.1,-,N/A,,Mostly Cloudy,40,2013-03-11 08:00:00
12:00 PM,77.0,48.2,36,30.24,6.2,ENE,9.2,-,N/A,,Mostly Cloudy,60,2013-03-11 09:00:00
1:00 PM,78.8,42.8,28,30.24,6.2,North,13.8,-,N/A,,Mostly Cloudy,360,2013-03-11 10:00:00
1:10 PM,80.6,41.0,24,30.18,6.2,ENE,16.1,-,N/A,,Mostly Cloudy,60,2013-03-11 10:10:00
3:00 PM,80.6,44.6,28,30.15,6.2,ENE,11.5,-,N/A,,Mostly Cloudy,60,2013-03-11 12:00:00
4:00 PM,78.8,42.8,28,30.12,6.2,NE,11.5,-,N/A,,Mostly Cloudy,50,2013-03-11 13:00:00
5:00 PM,78.8,42.8,28,-9999,6.2,ENE,11.5,-,N/A,,Mostly Cloudy,60,2013-03-11 14:00:00
6:00 PM,73.4,60.8,65,30.12,6.2,SSW,10.4,-,N/A,,Mostly Cloudy,200,2013-03-11 15:00:00
7:00 PM,69.8,59.0,68,30.18,6.2,South,5.8,-,N/A,,Mostly Cloudy,190,2013-03-11 16:00:00
8:00 PM,71.6,50.0,46,-9999,6.2,Calm,Calm,-,N/A,,Mostly Cloudy,0,2013-03-11 17:00:00
10:00 PM,62.6,57.2,82,30.24,6.2,South,9.2,-,N/A,,Scattered Clouds,180,2013-03-11 19:00:00
11:00 PM,62.6,57.2,82,-9999,6.2,Calm,Calm,-,N/A,,Scattered Clouds,0,2013-03-11 20:00:00